sensor_id;sensor_type;location;lat;lon;timestamp;P1;durP1;ratioP1;P2;durP2;ratioP2
26052;SDS011;13826;51.186;4.450;2022-09-01T00:01:04;6.60;;;1.85;;
26052;SDS011;13826;51.186;4.450;2022-09-01T00:03:36;6.90;;;1.80;;
26052;SDS011;13826;51.186;4.450;2022-09-01T00:06:01;5.60;;;1.70;;
26052;SDS011;13826;51.186;4.450;2022-09-01T00:08:28;9.13;;;1.70;;
26052;SDS011;13826;51.186;4.450;2022-09-01T00:10:53;3.63;;;1.70;;
26052;SDS011;13826;51.186;4.450;2022-09-01T00:13:19;4.57;;;1.77;;
26052;SDS011;13826;51.186;4.450;2022-09-01T00:15:45;4.80;;;1.60;;
26052;SDS011;13826;51.186;4.450;2022-09-01T00:18:10;1.80;;;1.40;;
26052;SDS011;13826;51.186;4.450;2022-09-01T00:20:36;5.20;;;1.80;;
26052;SDS011;13826;51.186;4.450;2022-09-01T00:23:02;9.90;;;1.35;;
26052;SDS011;13826;51.186;4.450;2022-09-01T00:25:28;7.32;;;1.80;;
26052;SDS011;13826;51.186;4.450;2022-09-01T00:27:54;4.65;;;1.77;;
26052;SDS011;13826;51.186;4.450;2022-09-01T00:30:24;4.13;;;1.90;;
26052;SDS011;13826;51.186;4.450;2022-09-01T00:32:50;4.35;;;1.40;;
26052;SDS011;13826;51.186;4.450;2022-09-01T00:35:16;3.42;;;1.55;;
26052;SDS011;13826;51.186;4.450;2022-09-01T00:37:43;3.40;;;1.58;;
26052;SDS011;13826;51.186;4.450;2022-09-01T00:40:10;2.72;;;1.50;;
26052;SDS011;13826;51.186;4.450;2022-09-01T00:42:38;3.50;;;1.58;;
26052;SDS011;13826;51.186;4.450;2022-09-01T00:45:05;5.13;;;1.60;;
26052;SDS011;13826;51.186;4.450;2022-09-01T00:47:32;5.35;;;1.90;;
26052;SDS011;13826;51.186;4.450;2022-09-01T00:49:59;3.15;;;1.63;;
26052;SDS011;13826;51.186;4.450;2022-09-01T00:52:30;3.80;;;1.85;;
26052;SDS011;13826;51.186;4.450;2022-09-01T00:55:00;3.08;;;2.10;;
26052;SDS011;13826;51.186;4.450;2022-09-01T00:57:31;8.05;;;1.90;;
26052;SDS011;13826;51.186;4.450;2022-09-01T01:00:15;8.50;;;1.92;;
26052;SDS011;13826;51.186;4.450;2022-09-01T01:02:44;5.18;;;1.73;;
26052;SDS011;13826;51.186;4.450;2022-09-01T01:05:10;5.72;;;1.73;;
26052;SDS011;13826;51.186;4.450;2022-09-01T01:07:37;5.13;;;1.83;;
26052;SDS011;13826;51.186;4.450;2022-09-01T01:10:06;5.45;;;1.60;;
26052;SDS011;13826;51.186;4.450;2022-09-01T01:12:35;6.03;;;1.73;;
26052;SDS011;13826;51.186;4.450;2022-09-01T01:15:05;10.13;;;2.08;;
26052;SDS011;13826;51.186;4.450;2022-09-01T01:17:32;5.50;;;1.77;;
26052;SDS011;13826;51.186;4.450;2022-09-01T01:19:58;3.58;;;1.90;;
26052;SDS011;13826;51.186;4.450;2022-09-01T01:28:19;4.90;;;1.80;;
26052;SDS011;13826;51.186;4.450;2022-09-01T01:30:51;4.50;;;1.63;;
26052;SDS011;13826;51.186;4.450;2022-09-01T01:33:25;4.53;;;1.92;;
26052;SDS011;13826;51.186;4.450;2022-09-01T01:36:06;5.50;;;1.83;;
26052;SDS011;13826;51.186;4.450;2022-09-01T01:38:36;4.43;;;1.90;;
26052;SDS011;13826;51.186;4.450;2022-09-01T01:41:07;3.83;;;2.00;;
26052;SDS011;13826;51.186;4.450;2022-09-01T01:43:34;4.43;;;1.90;;
26052;SDS011;13826;51.186;4.450;2022-09-01T01:46:01;3.08;;;1.65;;
26052;SDS011;13826;51.186;4.450;2022-09-01T01:48:30;10.10;;;2.55;;
26052;SDS011;13826;51.186;4.450;2022-09-01T01:50:58;3.17;;;1.92;;
26052;SDS011;13826;51.186;4.450;2022-09-01T01:53:25;3.63;;;1.30;;
26052;SDS011;13826;51.186;4.450;2022-09-01T01:55:51;8.93;;;1.80;;
26052;SDS011;13826;51.186;4.450;2022-09-01T01:58:17;3.90;;;1.80;;
26052;SDS011;13826;51.186;4.450;2022-09-01T02:00:45;3.38;;;1.65;;
26052;SDS011;13826;51.186;4.450;2022-09-01T02:03:13;3.83;;;1.75;;
26052;SDS011;13826;51.186;4.450;2022-09-01T02:05:43;5.95;;;1.75;;
26052;SDS011;13826;51.186;4.450;2022-09-01T02:08:11;6.22;;;1.80;;
26052;SDS011;13826;51.186;4.450;2022-09-01T02:10:41;5.40;;;1.77;;
26052;SDS011;13826;51.186;4.450;2022-09-01T02:13:09;6.10;;;1.77;;
26052;SDS011;13826;51.186;4.450;2022-09-01T02:15:40;10.77;;;1.67;;
26052;SDS011;13826;51.186;4.450;2022-09-01T02:18:25;8.43;;;1.98;;
26052;SDS011;13826;51.186;4.450;2022-09-01T02:20:55;5.93;;;2.00;;
26052;SDS011;13826;51.186;4.450;2022-09-01T02:23:22;3.15;;;1.65;;
26052;SDS011;13826;51.186;4.450;2022-09-01T02:25:50;4.82;;;1.48;;
26052;SDS011;13826;51.186;4.450;2022-09-01T02:28:18;5.30;;;1.67;;
26052;SDS011;13826;51.186;4.450;2022-09-01T02:30:46;4.28;;;1.70;;
26052;SDS011;13826;51.186;4.450;2022-09-01T02:33:16;3.08;;;1.42;;
26052;SDS011;13826;51.186;4.450;2022-09-01T02:35:48;3.22;;;1.55;;
26052;SDS011;13826;51.186;4.450;2022-09-01T02:38:19;7.00;;;1.75;;
26052;SDS011;13826;51.186;4.450;2022-09-01T02:40:47;6.18;;;1.70;;
26052;SDS011;13826;51.186;4.450;2022-09-01T02:43:14;7.95;;;1.73;;
26052;SDS011;13826;51.186;4.450;2022-09-01T02:45:43;9.02;;;1.67;;
26052;SDS011;13826;51.186;4.450;2022-09-01T02:48:11;4.90;;;1.48;;
26052;SDS011;13826;51.186;4.450;2022-09-01T02:50:37;2.78;;;1.40;;
26052;SDS011;13826;51.186;4.450;2022-09-01T02:53:05;4.35;;;1.85;;
26052;SDS011;13826;51.186;4.450;2022-09-01T02:55:34;2.67;;;1.50;;
26052;SDS011;13826;51.186;4.450;2022-09-01T02:58:01;4.10;;;1.85;;
26052;SDS011;13826;51.186;4.450;2022-09-01T03:00:27;4.50;;;1.95;;
26052;SDS011;13826;51.186;4.450;2022-09-01T03:02:56;2.88;;;1.80;;
26052;SDS011;13826;51.186;4.450;2022-09-01T03:05:24;8.57;;;1.92;;
26052;SDS011;13826;51.186;4.450;2022-09-01T03:08:01;3.05;;;1.88;;
26052;SDS011;13826;51.186;4.450;2022-09-01T03:10:34;5.15;;;1.70;;
26052;SDS011;13826;51.186;4.450;2022-09-01T03:13:07;5.38;;;1.65;;
26052;SDS011;13826;51.186;4.450;2022-09-01T03:15:36;5.85;;;1.70;;
26052;SDS011;13826;51.186;4.450;2022-09-01T03:18:03;7.75;;;1.45;;
26052;SDS011;13826;51.186;4.450;2022-09-01T03:20:31;6.25;;;1.92;;
26052;SDS011;13826;51.186;4.450;2022-09-01T03:23:03;6.55;;;1.77;;
26052;SDS011;13826;51.186;4.450;2022-09-01T03:25:33;4.03;;;2.13;;
26052;SDS011;13826;51.186;4.450;2022-09-01T03:28:00;4.18;;;1.90;;
26052;SDS011;13826;51.186;4.450;2022-09-01T03:30:28;7.53;;;2.17;;
26052;SDS011;13826;51.186;4.450;2022-09-01T03:32:55;4.82;;;1.58;;
26052;SDS011;13826;51.186;4.450;2022-09-01T03:35:22;4.95;;;1.67;;
26052;SDS011;13826;51.186;4.450;2022-09-01T03:37:49;8.20;;;1.77;;
26052;SDS011;13826;51.186;4.450;2022-09-01T03:40:15;11.15;;;2.25;;
26052;SDS011;13826;51.186;4.450;2022-09-01T03:42:42;5.15;;;1.95;;
26052;SDS011;13826;51.186;4.450;2022-09-01T03:45:08;3.70;;;1.63;;
26052;SDS011;13826;51.186;4.450;2022-09-01T03:47:37;5.95;;;1.90;;
26052;SDS011;13826;51.186;4.450;2022-09-01T03:50:08;3.78;;;1.80;;
26052;SDS011;13826;51.186;4.450;2022-09-01T03:52:54;6.50;;;2.17;;
26052;SDS011;13826;51.186;4.450;2022-09-01T03:55:24;4.75;;;2.00;;
26052;SDS011;13826;51.186;4.450;2022-09-01T03:57:55;4.15;;;1.85;;
26052;SDS011;13826;51.186;4.450;2022-09-01T04:00:23;6.43;;;1.92;;
26052;SDS011;13826;51.186;4.450;2022-09-01T04:02:54;7.00;;;1.90;;
26052;SDS011;13826;51.186;4.450;2022-09-01T04:05:26;4.63;;;2.00;;
26052;SDS011;13826;51.186;4.450;2022-09-01T04:07:56;5.18;;;2.15;;
26052;SDS011;13826;51.186;4.450;2022-09-01T04:10:28;4.28;;;1.80;;
26052;SDS011;13826;51.186;4.450;2022-09-01T04:12:59;6.35;;;2.08;;
26052;SDS011;13826;51.186;4.450;2022-09-01T04:15:25;7.55;;;2.47;;
26052;SDS011;13826;51.186;4.450;2022-09-01T04:17:52;5.53;;;2.25;;
26052;SDS011;13826;51.186;4.450;2022-09-01T04:20:44;3.13;;;2.20;;
26052;SDS011;13826;51.186;4.450;2022-09-01T04:23:15;5.45;;;2.80;;
26052;SDS011;13826;51.186;4.450;2022-09-01T04:25:50;9.90;;;2.65;;
26052;SDS011;13826;51.186;4.450;2022-09-01T04:28:18;4.85;;;2.20;;
26052;SDS011;13826;51.186;4.450;2022-09-01T04:30:52;9.40;;;2.55;;
26052;SDS011;13826;51.186;4.450;2022-09-01T04:33:20;4.18;;;2.13;;
26052;SDS011;13826;51.186;4.450;2022-09-01T04:35:48;8.25;;;2.30;;
26052;SDS011;13826;51.186;4.450;2022-09-01T04:38:19;4.88;;;2.50;;
26052;SDS011;13826;51.186;4.450;2022-09-01T04:40:46;11.48;;;2.45;;
26052;SDS011;13826;51.186;4.450;2022-09-01T04:43:13;8.85;;;2.88;;
26052;SDS011;13826;51.186;4.450;2022-09-01T04:45:39;4.68;;;2.38;;
26052;SDS011;13826;51.186;4.450;2022-09-01T04:48:05;5.30;;;2.53;;
26052;SDS011;13826;51.186;4.450;2022-09-01T04:50:31;8.85;;;3.08;;
26052;SDS011;13826;51.186;4.450;2022-09-01T04:52:59;7.00;;;2.75;;
26052;SDS011;13826;51.186;4.450;2022-09-01T04:55:26;9.23;;;3.13;;
26052;SDS011;13826;51.186;4.450;2022-09-01T04:57:55;11.80;;;3.47;;
26052;SDS011;13826;51.186;4.450;2022-09-01T05:00:23;5.57;;;3.13;;
26052;SDS011;13826;51.186;4.450;2022-09-01T05:02:51;11.98;;;3.50;;
26052;SDS011;13826;51.186;4.450;2022-09-01T05:05:18;12.63;;;3.95;;
26052;SDS011;13826;51.186;4.450;2022-09-01T05:07:45;8.70;;;3.38;;
26052;SDS011;13826;51.186;4.450;2022-09-01T05:10:16;10.23;;;3.88;;
26052;SDS011;13826;51.186;4.450;2022-09-01T05:12:46;8.23;;;3.50;;
26052;SDS011;13826;51.186;4.450;2022-09-01T05:15:13;11.27;;;4.18;;
26052;SDS011;13826;51.186;4.450;2022-09-01T05:17:39;7.70;;;3.55;;
26052;SDS011;13826;51.186;4.450;2022-09-01T05:20:06;10.55;;;3.42;;
26052;SDS011;13826;51.186;4.450;2022-09-01T05:22:33;7.93;;;3.83;;
26052;SDS011;13826;51.186;4.450;2022-09-01T05:25:00;8.95;;;3.78;;
26052;SDS011;13826;51.186;4.450;2022-09-01T05:27:38;8.82;;;4.38;;
26052;SDS011;13826;51.186;4.450;2022-09-01T05:30:05;9.68;;;4.45;;
26052;SDS011;13826;51.186;4.450;2022-09-01T05:32:35;12.57;;;4.47;;
26052;SDS011;13826;51.186;4.450;2022-09-01T05:35:03;14.13;;;4.50;;
26052;SDS011;13826;51.186;4.450;2022-09-01T05:37:32;12.88;;;4.25;;
26052;SDS011;13826;51.186;4.450;2022-09-01T05:40:00;9.65;;;4.03;;
26052;SDS011;13826;51.186;4.450;2022-09-01T05:42:26;13.63;;;4.85;;
26052;SDS011;13826;51.186;4.450;2022-09-01T05:44:53;12.93;;;4.63;;
26052;SDS011;13826;51.186;4.450;2022-09-01T05:47:18;8.48;;;4.18;;
26052;SDS011;13826;51.186;4.450;2022-09-01T05:49:45;12.07;;;4.60;;
26052;SDS011;13826;51.186;4.450;2022-09-01T05:52:13;14.65;;;5.28;;
26052;SDS011;13826;51.186;4.450;2022-09-01T05:54:39;19.05;;;5.47;;
26052;SDS011;13826;51.186;4.450;2022-09-01T05:57:05;11.75;;;5.28;;
26052;SDS011;13826;51.186;4.450;2022-09-01T05:59:31;27.63;;;5.68;;
26052;SDS011;13826;51.186;4.450;2022-09-01T06:01:57;16.88;;;6.40;;
26052;SDS011;13826;51.186;4.450;2022-09-01T06:04:25;16.40;;;6.22;;
26052;SDS011;13826;51.186;4.450;2022-09-01T06:06:51;11.18;;;6.07;;
26052;SDS011;13826;51.186;4.450;2022-09-01T06:09:17;18.10;;;5.68;;
26052;SDS011;13826;51.186;4.450;2022-09-01T06:11:45;13.63;;;5.90;;
26052;SDS011;13826;51.186;4.450;2022-09-01T06:14:12;13.68;;;6.15;;
26052;SDS011;13826;51.186;4.450;2022-09-01T06:16:39;13.23;;;5.80;;
26052;SDS011;13826;51.186;4.450;2022-09-01T06:19:06;15.07;;;5.65;;
26052;SDS011;13826;51.186;4.450;2022-09-01T06:21:32;19.55;;;5.60;;
26052;SDS011;13826;51.186;4.450;2022-09-01T06:23:58;15.02;;;5.75;;
26052;SDS011;13826;51.186;4.450;2022-09-01T06:26:26;19.23;;;6.65;;
26052;SDS011;13826;51.186;4.450;2022-09-01T06:28:54;11.05;;;6.05;;
26052;SDS011;13826;51.186;4.450;2022-09-01T06:31:21;9.60;;;5.80;;
26052;SDS011;13826;51.186;4.450;2022-09-01T06:33:49;16.30;;;6.68;;
26052;SDS011;13826;51.186;4.450;2022-09-01T06:36:18;16.10;;;5.97;;
26052;SDS011;13826;51.186;4.450;2022-09-01T06:38:46;11.43;;;6.13;;
26052;SDS011;13826;51.186;4.450;2022-09-01T06:41:13;12.88;;;5.82;;
26052;SDS011;13826;51.186;4.450;2022-09-01T06:43:39;14.20;;;5.40;;
26052;SDS011;13826;51.186;4.450;2022-09-01T06:46:06;12.20;;;5.95;;
26052;SDS011;13826;51.186;4.450;2022-09-01T06:48:34;15.98;;;6.43;;
26052;SDS011;13826;51.186;4.450;2022-09-01T06:51:04;13.23;;;6.10;;
26052;SDS011;13826;51.186;4.450;2022-09-01T06:53:33;10.25;;;6.22;;
26052;SDS011;13826;51.186;4.450;2022-09-01T06:55:59;14.57;;;6.50;;
26052;SDS011;13826;51.186;4.450;2022-09-01T06:58:26;15.38;;;6.00;;
26052;SDS011;13826;51.186;4.450;2022-09-01T07:00:54;17.20;;;7.30;;
26052;SDS011;13826;51.186;4.450;2022-09-01T07:03:20;17.73;;;7.05;;
26052;SDS011;13826;51.186;4.450;2022-09-01T07:05:48;16.35;;;7.20;;
26052;SDS011;13826;51.186;4.450;2022-09-01T07:08:15;13.05;;;6.43;;
26052;SDS011;13826;51.186;4.450;2022-09-01T07:10:49;17.73;;;7.45;;
26052;SDS011;13826;51.186;4.450;2022-09-01T07:13:19;21.05;;;6.65;;
26052;SDS011;13826;51.186;4.450;2022-09-01T07:15:48;12.70;;;6.55;;
26052;SDS011;13826;51.186;4.450;2022-09-01T07:18:18;15.68;;;7.07;;
26052;SDS011;13826;51.186;4.450;2022-09-01T07:20:46;14.10;;;6.70;;
26052;SDS011;13826;51.186;4.450;2022-09-01T07:23:14;17.05;;;7.65;;
26052;SDS011;13826;51.186;4.450;2022-09-01T07:25:41;13.70;;;6.50;;
26052;SDS011;13826;51.186;4.450;2022-09-01T07:28:09;20.73;;;7.18;;
26052;SDS011;13826;51.186;4.450;2022-09-01T07:30:46;13.82;;;6.68;;
26052;SDS011;13826;51.186;4.450;2022-09-01T07:33:15;14.00;;;6.95;;
26052;SDS011;13826;51.186;4.450;2022-09-01T07:35:45;12.07;;;6.65;;
26052;SDS011;13826;51.186;4.450;2022-09-01T07:38:14;14.05;;;6.80;;
26052;SDS011;13826;51.186;4.450;2022-09-01T07:40:43;13.85;;;7.13;;
26052;SDS011;13826;51.186;4.450;2022-09-01T07:43:15;15.82;;;7.40;;
26052;SDS011;13826;51.186;4.450;2022-09-01T07:45:52;12.90;;;7.43;;
26052;SDS011;13826;51.186;4.450;2022-09-01T07:48:20;16.05;;;6.90;;
26052;SDS011;13826;51.186;4.450;2022-09-01T07:50:48;11.95;;;7.25;;
26052;SDS011;13826;51.186;4.450;2022-09-01T07:53:24;11.13;;;6.65;;
26052;SDS011;13826;51.186;4.450;2022-09-01T07:55:52;13.77;;;7.78;;
26052;SDS011;13826;51.186;4.450;2022-09-01T07:58:21;20.58;;;7.10;;
26052;SDS011;13826;51.186;4.450;2022-09-01T08:00:49;15.77;;;7.13;;
26052;SDS011;13826;51.186;4.450;2022-09-01T08:03:17;15.35;;;6.72;;
26052;SDS011;13826;51.186;4.450;2022-09-01T08:05:44;14.82;;;7.53;;
26052;SDS011;13826;51.186;4.450;2022-09-01T08:08:11;19.67;;;7.72;;
26052;SDS011;13826;51.186;4.450;2022-09-01T08:10:38;17.42;;;7.53;;
26052;SDS011;13826;51.186;4.450;2022-09-01T08:13:04;16.80;;;7.88;;
26052;SDS011;13826;51.186;4.450;2022-09-01T08:15:30;16.35;;;6.68;;
26052;SDS011;13826;51.186;4.450;2022-09-01T08:17:56;15.68;;;6.80;;
26052;SDS011;13826;51.186;4.450;2022-09-01T08:20:22;13.43;;;7.07;;
26052;SDS011;13826;51.186;4.450;2022-09-01T08:22:47;15.98;;;7.28;;
26052;SDS011;13826;51.186;4.450;2022-09-01T08:25:14;14.35;;;7.78;;
26052;SDS011;13826;51.186;4.450;2022-09-01T08:27:40;14.93;;;7.10;;
26052;SDS011;13826;51.186;4.450;2022-09-01T08:30:08;13.90;;;7.15;;
26052;SDS011;13826;51.186;4.450;2022-09-01T08:32:36;17.85;;;7.60;;
26052;SDS011;13826;51.186;4.450;2022-09-01T08:35:06;12.80;;;7.50;;
26052;SDS011;13826;51.186;4.450;2022-09-01T08:37:36;13.25;;;7.82;;
26052;SDS011;13826;51.186;4.450;2022-09-01T08:40:06;14.48;;;7.25;;
26052;SDS011;13826;51.186;4.450;2022-09-01T08:47:53;14.85;;;7.22;;
26052;SDS011;13826;51.186;4.450;2022-09-01T08:50:21;15.90;;;6.93;;
26052;SDS011;13826;51.186;4.450;2022-09-01T08:53:00;12.45;;;6.90;;
26052;SDS011;13826;51.186;4.450;2022-09-01T08:55:46;17.25;;;7.95;;
26052;SDS011;13826;51.186;4.450;2022-09-01T08:58:17;21.27;;;8.15;;
26052;SDS011;13826;51.186;4.450;2022-09-01T09:00:44;17.02;;;7.90;;
26052;SDS011;13826;51.186;4.450;2022-09-01T09:05:48;27.67;;;8.63;;
26052;SDS011;13826;51.186;4.450;2022-09-01T09:08:57;22.40;;;7.70;;
26052;SDS011;13826;51.186;4.450;2022-09-01T09:16:53;14.45;;;6.55;;
26052;SDS011;13826;51.186;4.450;2022-09-01T09:19:30;18.38;;;6.68;;
26052;SDS011;13826;51.186;4.450;2022-09-01T09:22:00;15.32;;;6.30;;
26052;SDS011;13826;51.186;4.450;2022-09-01T09:24:33;13.45;;;5.95;;
26052;SDS011;13826;51.186;4.450;2022-09-01T09:27:20;12.18;;;5.63;;
26052;SDS011;13826;51.186;4.450;2022-09-01T09:30:05;11.95;;;5.70;;
26052;SDS011;13826;51.186;4.450;2022-09-01T09:43:42;8.80;;;4.18;;
26052;SDS011;13826;51.186;4.450;2022-09-01T09:46:22;14.18;;;3.65;;
26052;SDS011;13826;51.186;4.450;2022-09-01T09:48:48;13.93;;;3.10;;
26052;SDS011;13826;51.186;4.450;2022-09-01T09:51:32;9.65;;;2.40;;
26052;SDS011;13826;51.186;4.450;2022-09-01T09:56:40;5.15;;;2.03;;
26052;SDS011;13826;51.186;4.450;2022-09-01T09:59:15;5.97;;;1.80;;
26052;SDS011;13826;51.186;4.450;2022-09-01T10:01:47;3.97;;;1.70;;
26052;SDS011;13826;51.186;4.450;2022-09-01T10:04:29;5.65;;;1.65;;
26052;SDS011;13826;51.186;4.450;2022-09-01T10:06:57;5.53;;;1.60;;
26052;SDS011;13826;51.186;4.450;2022-09-01T10:11:56;4.47;;;1.40;;
26052;SDS011;13826;51.186;4.450;2022-09-01T10:14:23;6.18;;;1.92;;
26052;SDS011;13826;51.186;4.450;2022-09-01T10:17:12;6.43;;;1.60;;
26052;SDS011;13826;51.186;4.450;2022-09-01T10:19:42;6.38;;;1.90;;
26052;SDS011;13826;51.186;4.450;2022-09-01T10:22:15;4.63;;;1.77;;
26052;SDS011;13826;51.186;4.450;2022-09-01T10:24:40;3.05;;;1.60;;
26052;SDS011;13826;51.186;4.450;2022-09-01T10:27:12;3.03;;;1.20;;
26052;SDS011;13826;51.186;4.450;2022-09-01T10:29:50;3.85;;;1.45;;
26052;SDS011;13826;51.186;4.450;2022-09-01T10:32:26;3.38;;;1.73;;
26052;SDS011;13826;51.186;4.450;2022-09-01T10:34:57;5.78;;;1.58;;
26052;SDS011;13826;51.186;4.450;2022-09-01T10:37:23;3.42;;;1.45;;
26052;SDS011;13826;51.186;4.450;2022-09-01T10:42:40;2.47;;;1.50;;
26052;SDS011;13826;51.186;4.450;2022-09-01T10:45:16;2.80;;;1.20;;
26052;SDS011;13826;51.186;4.450;2022-09-01T10:47:46;1.60;;;1.05;;
26052;SDS011;13826;51.186;4.450;2022-09-01T10:50:29;2.97;;;1.23;;
26052;SDS011;13826;51.186;4.450;2022-09-01T10:53:00;4.10;;;1.38;;
26052;SDS011;13826;51.186;4.450;2022-09-01T10:55:39;2.80;;;1.40;;
26052;SDS011;13826;51.186;4.450;2022-09-01T11:00:44;4.32;;;1.42;;
26052;SDS011;13826;51.186;4.450;2022-09-01T11:11:02;5.05;;;1.52;;
26052;SDS011;13826;51.186;4.450;2022-09-01T11:13:38;3.08;;;1.40;;
26052;SDS011;13826;51.186;4.450;2022-09-01T11:16:36;2.85;;;1.10;;
26052;SDS011;13826;51.186;4.450;2022-09-01T11:24:52;3.50;;;1.50;;
26052;SDS011;13826;51.186;4.450;2022-09-01T11:30:22;2.90;;;1.48;;
26052;SDS011;13826;51.186;4.450;2022-09-01T11:33:03;5.15;;;2.13;;
26052;SDS011;13826;51.186;4.450;2022-09-01T11:35:39;2.75;;;1.30;;
26052;SDS011;13826;51.186;4.450;2022-09-01T11:38:09;4.22;;;1.33;;
26052;SDS011;13826;51.186;4.450;2022-09-01T11:40:39;4.82;;;1.92;;
26052;SDS011;13826;51.186;4.450;2022-09-01T11:43:14;4.43;;;1.70;;
26052;SDS011;13826;51.186;4.450;2022-09-01T11:48:44;6.72;;;1.80;;
26052;SDS011;13826;51.186;4.450;2022-09-01T11:51:11;5.68;;;2.00;;
26052;SDS011;13826;51.186;4.450;2022-09-01T11:53:38;3.78;;;1.52;;
26052;SDS011;13826;51.186;4.450;2022-09-01T11:56:18;4.25;;;1.63;;
26052;SDS011;13826;51.186;4.450;2022-09-01T11:58:48;4.78;;;1.50;;
26052;SDS011;13826;51.186;4.450;2022-09-01T12:01:17;7.97;;;1.85;;
26052;SDS011;13826;51.186;4.450;2022-09-01T12:03:48;7.00;;;1.70;;
26052;SDS011;13826;51.186;4.450;2022-09-01T12:06:22;3.28;;;1.73;;
26052;SDS011;13826;51.186;4.450;2022-09-01T12:08:53;6.00;;;2.22;;
26052;SDS011;13826;51.186;4.450;2022-09-01T12:11:22;5.25;;;1.80;;
26052;SDS011;13826;51.186;4.450;2022-09-01T12:16:31;3.60;;;1.55;;
26052;SDS011;13826;51.186;4.450;2022-09-01T12:19:01;7.03;;;1.48;;
26052;SDS011;13826;51.186;4.450;2022-09-01T12:21:30;6.28;;;1.60;;
26052;SDS011;13826;51.186;4.450;2022-09-01T12:26:48;4.57;;;1.63;;
26052;SDS011;13826;51.186;4.450;2022-09-01T12:29:16;7.65;;;2.72;;
26052;SDS011;13826;51.186;4.450;2022-09-01T12:31:43;4.75;;;1.70;;
26052;SDS011;13826;51.186;4.450;2022-09-01T12:34:24;11.18;;;2.53;;
26052;SDS011;13826;51.186;4.450;2022-09-01T12:37:10;4.00;;;2.10;;
26052;SDS011;13826;51.186;4.450;2022-09-01T12:39:44;10.00;;;2.13;;
26052;SDS011;13826;51.186;4.450;2022-09-01T12:44:51;3.95;;;2.25;;
26052;SDS011;13826;51.186;4.450;2022-09-01T12:52:48;4.65;;;1.70;;
26052;SDS011;13826;51.186;4.450;2022-09-01T12:55:20;3.03;;;1.58;;
26052;SDS011;13826;51.186;4.450;2022-09-01T12:57:51;4.82;;;2.25;;
26052;SDS011;13826;51.186;4.450;2022-09-01T13:00:20;7.10;;;1.90;;
26052;SDS011;13826;51.186;4.450;2022-09-01T13:05:38;3.40;;;1.80;;
26052;SDS011;13826;51.186;4.450;2022-09-01T13:08:07;5.90;;;1.88;;
26052;SDS011;13826;51.186;4.450;2022-09-01T13:10:46;9.15;;;2.17;;
26052;SDS011;13826;51.186;4.450;2022-09-01T13:13:13;4.07;;;1.60;;
26052;SDS011;13826;51.186;4.450;2022-09-01T13:15:41;3.72;;;1.75;;
26052;SDS011;13826;51.186;4.450;2022-09-01T13:18:09;3.90;;;1.58;;
26052;SDS011;13826;51.186;4.450;2022-09-01T13:20:34;5.10;;;1.73;;
26052;SDS011;13826;51.186;4.450;2022-09-01T13:23:00;2.47;;;1.77;;
26052;SDS011;13826;51.186;4.450;2022-09-01T13:25:26;9.07;;;2.20;;
26052;SDS011;13826;51.186;4.450;2022-09-01T13:27:52;5.75;;;1.70;;
26052;SDS011;13826;51.186;4.450;2022-09-01T13:30:19;2.15;;;1.52;;
26052;SDS011;13826;51.186;4.450;2022-09-01T13:32:47;7.07;;;1.83;;
26052;SDS011;13826;51.186;4.450;2022-09-01T13:35:15;4.25;;;2.08;;
26052;SDS011;13826;51.186;4.450;2022-09-01T13:37:43;3.83;;;1.92;;
26052;SDS011;13826;51.186;4.450;2022-09-01T13:40:10;5.07;;;2.00;;
26052;SDS011;13826;51.186;4.450;2022-09-01T13:42:39;2.80;;;2.10;;
26052;SDS011;13826;51.186;4.450;2022-09-01T13:45:06;5.47;;;1.70;;
26052;SDS011;13826;51.186;4.450;2022-09-01T13:47:32;3.63;;;1.60;;
26052;SDS011;13826;51.186;4.450;2022-09-01T13:49:58;2.33;;;1.55;;
26052;SDS011;13826;51.186;4.450;2022-09-01T13:52:24;3.47;;;1.70;;
26052;SDS011;13826;51.186;4.450;2022-09-01T13:54:49;2.47;;;1.60;;
26052;SDS011;13826;51.186;4.450;2022-09-01T13:57:15;3.35;;;2.08;;
26052;SDS011;13826;51.186;4.450;2022-09-01T13:59:41;4.30;;;1.50;;
26052;SDS011;13826;51.186;4.450;2022-09-01T14:02:07;9.30;;;1.70;;
26052;SDS011;13826;51.186;4.450;2022-09-01T14:04:34;5.55;;;1.95;;
26052;SDS011;13826;51.186;4.450;2022-09-01T14:07:00;4.65;;;1.58;;
26052;SDS011;13826;51.186;4.450;2022-09-01T14:09:26;6.53;;;1.90;;
26052;SDS011;13826;51.186;4.450;2022-09-01T14:11:52;2.90;;;1.52;;
26052;SDS011;13826;51.186;4.450;2022-09-01T14:14:26;13.73;;;1.98;;
26052;SDS011;13826;51.186;4.450;2022-09-01T14:16:58;1.40;;;1.13;;
26052;SDS011;13826;51.186;4.450;2022-09-01T14:19:23;3.45;;;1.60;;
26052;SDS011;13826;51.186;4.450;2022-09-01T14:21:49;5.97;;;2.00;;
26052;SDS011;13826;51.186;4.450;2022-09-01T14:24:16;3.13;;;1.60;;
26052;SDS011;13826;51.186;4.450;2022-09-01T14:26:43;2.00;;;1.40;;
26052;SDS011;13826;51.186;4.450;2022-09-01T14:29:10;4.68;;;1.80;;
26052;SDS011;13826;51.186;4.450;2022-09-01T14:31:35;2.05;;;1.50;;
26052;SDS011;13826;51.186;4.450;2022-09-01T14:34:01;8.07;;;1.73;;
26052;SDS011;13826;51.186;4.450;2022-09-01T14:36:28;4.53;;;1.33;;
26052;SDS011;13826;51.186;4.450;2022-09-01T14:38:54;3.72;;;1.30;;
26052;SDS011;13826;51.186;4.450;2022-09-01T14:41:20;3.65;;;1.30;;
26052;SDS011;13826;51.186;4.450;2022-09-01T14:43:49;6.35;;;1.52;;
26052;SDS011;13826;51.186;4.450;2022-09-01T14:46:16;4.18;;;1.70;;
26052;SDS011;13826;51.186;4.450;2022-09-01T14:48:44;4.85;;;1.33;;
26052;SDS011;13826;51.186;4.450;2022-09-01T14:51:18;3.17;;;1.65;;
26052;SDS011;13826;51.186;4.450;2022-09-01T14:53:47;5.05;;;1.35;;
26052;SDS011;13826;51.186;4.450;2022-09-01T14:56:13;2.78;;;1.48;;
26052;SDS011;13826;51.186;4.450;2022-09-01T14:58:42;7.68;;;1.80;;
26052;SDS011;13826;51.186;4.450;2022-09-01T15:01:10;5.55;;;1.52;;
26052;SDS011;13826;51.186;4.450;2022-09-01T15:03:37;2.80;;;1.25;;
26052;SDS011;13826;51.186;4.450;2022-09-01T15:06:03;4.07;;;1.50;;
26052;SDS011;13826;51.186;4.450;2022-09-01T15:08:28;5.38;;;1.33;;
26052;SDS011;13826;51.186;4.450;2022-09-01T15:10:54;3.95;;;1.30;;
26052;SDS011;13826;51.186;4.450;2022-09-01T15:13:20;3.70;;;1.42;;
26052;SDS011;13826;51.186;4.450;2022-09-01T15:15:45;9.82;;;1.70;;
26052;SDS011;13826;51.186;4.450;2022-09-01T15:18:11;7.22;;;1.80;;
26052;SDS011;13826;51.186;4.450;2022-09-01T15:20:40;5.35;;;2.25;;
26052;SDS011;13826;51.186;4.450;2022-09-01T15:23:10;5.40;;;1.50;;
26052;SDS011;13826;51.186;4.450;2022-09-01T15:25:44;4.57;;;1.60;;
26052;SDS011;13826;51.186;4.450;2022-09-01T15:28:10;8.45;;;2.28;;
26052;SDS011;13826;51.186;4.450;2022-09-01T15:30:36;4.25;;;1.40;;
26052;SDS011;13826;51.186;4.450;2022-09-01T15:33:03;6.55;;;1.58;;
26052;SDS011;13826;51.186;4.450;2022-09-01T15:35:30;5.25;;;1.40;;
26052;SDS011;13826;51.186;4.450;2022-09-01T15:37:56;7.55;;;1.67;;
26052;SDS011;13826;51.186;4.450;2022-09-01T15:40:23;4.78;;;1.42;;
26052;SDS011;13826;51.186;4.450;2022-09-01T15:42:49;6.22;;;2.05;;
26052;SDS011;13826;51.186;4.450;2022-09-01T15:45:17;5.80;;;1.73;;
26052;SDS011;13826;51.186;4.450;2022-09-01T15:47:46;5.53;;;1.83;;
26052;SDS011;13826;51.186;4.450;2022-09-01T15:50:13;4.18;;;1.80;;
26052;SDS011;13826;51.186;4.450;2022-09-01T15:52:48;5.15;;;1.35;;
26052;SDS011;13826;51.186;4.450;2022-09-01T15:55:43;5.88;;;1.60;;
26052;SDS011;13826;51.186;4.450;2022-09-01T15:58:12;4.97;;;1.65;;
26052;SDS011;13826;51.186;4.450;2022-09-01T16:00:39;4.75;;;1.35;;
26052;SDS011;13826;51.186;4.450;2022-09-01T16:03:05;6.07;;;1.58;;
26052;SDS011;13826;51.186;4.450;2022-09-01T16:05:32;7.32;;;1.65;;
26052;SDS011;13826;51.186;4.450;2022-09-01T16:08:00;4.43;;;1.50;;
26052;SDS011;13826;51.186;4.450;2022-09-01T16:10:27;2.15;;;1.27;;
26052;SDS011;13826;51.186;4.450;2022-09-01T16:12:54;1.35;;;1.10;;